Lambasa Airport Macuata Province FJ
ICAO: NFNL
IATA: LBS
Category: Medium
Scheduled Services: Yes

Elevation: 44 ft
TransAlt. 11000 ft.

Airport Communications:
RDO:122.9

NFNL Zoom In..

If you have problems with the map follow the link
https://www.worldairports.se/pages/airport.php?
ICAO=NFNL

Runways:

(A) RW 13 length 3501 ft width 98 ft
---- / hdg 134

(B) RW 31 length 3501 ft width 98 ft
---- / hdg 314

Location; NFNL
Day. 21 / Time. 03.00 Zulu
* QNH: 1007
* Temperature: 29° c. 84.2°f.
* Wind from: 080° Speed 13 kn.
Dewpoint: 23° c.
Clouds: Broken 2500 ft.
Clouds: Broken 8000 ft.

NFNL 210300Z 08013KT 20KM BKN025 BKN080 29/23 Q1007


Wind From 080°
Speed 13 kn.

 
 
jpsmedia worldairports.se 2020   terms of use